Weather at Kuala Lumpur International Airport

Public forecast

Using degrees Celsius for public forecast. Weather courtesy of forecast.io.

Current aviation weather report (METAR) for Kuala Lumpur International Airport

2022/12/01 22:30 (retrieved 15 minutes ago)

WMKK 012230Z 00000KT 8000 FEW008 FEW017CB SCT030 25/24 Q1007 NOSIG

Aviation forecast (TAF) for Kuala Lumpur International Airport

2022/12/01 18:08 (retrieved 5 hours ago)

TAF WMKK 011700Z 0118/0300 VRB02KT 9000 FEW017CB TEMPO 0205/0210 3000 +TSRA FEW006 FEW016CB TEMPO 0210/0216 5000 TSRA FEW017CB SCT028